Time;durP1;ratioP1;P1;durP2;ratioP2;P2;SDS_P1;SDS_P2;PMS_P1;PMS_P2;Temp;Humidity;BMP_temperature;BMP_pressure;BME280_temperature;BME280_humidity;BME280_pressure;Samples;Min_cycle;Max_cycle;Signal;HPM_P1;HPM_P2
2022/03/17 00:00:10;;;;;;;;;;;;;;;3.44;65.17;102425.69;1676033;84;20139;-74
2022/03/17 00:02:37;;;;;;;;;;;;;;;3.43;65.25;102429.05;1704188;83;20434;-74
2022/03/17 00:05:04;;;;;;;;;;;;;;;3.42;65.25;102432.42;1680297;83;20191;-74
2022/03/17 00:07:30;;;;;;;;;;;;;;;3.41;65.35;102433.63;1675555;84;20127;-73
2022/03/17 00:09:57;;;;;;;;;;;;;;;3.40;65.40;102423.81;1674630;84;20210;-74
2022/03/17 00:12:23;;;;;;;;;;;;;;;3.39;65.39;102427.17;1698721;84;20153;-74
2022/03/17 00:14:51;;;;;;;;;;;;;;;3.41;65.43;102425.55;1702402;84;20188;-73
2022/03/17 00:17:17;;;;;;;;;;;;;;;3.40;65.37;102426.37;1702431;84;20137;-74
2022/03/17 00:19:43;;;;;;;;;;;;;;;3.37;65.55;102426.64;1702296;84;20137;-74
2022/03/17 00:22:10;;;;;;;;;;;;;;;3.35;65.48;102430.81;1702803;84;20219;-74
2022/03/17 00:24:37;;;;;;;;;;;;;;;3.31;65.47;102431.09;1685449;83;20183;-74
2022/03/17 00:27:05;;;;;;;;;;;;;;;3.29;65.57;102432.70;1674419;85;20735;-74
2022/03/17 00:29:33;;;;;;;;;;;;;;;3.24;65.48;102433.78;1690655;84;20133;-73
2022/03/17 00:32:07;;;;;;;;;;;;;;;3.22;65.58;102431.97;1678568;83;20451;-74
2022/03/17 00:34:34;;;;;;;;;;;;;;;3.21;65.58;102432.78;1678007;84;20480;-73
2022/03/17 00:37:00;;;;;;;;;;;;;;;3.20;65.74;102427.20;1677999;84;20124;-74
2022/03/17 00:39:26;;;;;;;;;;;;;;;3.19;65.74;102425.45;1667986;85;20222;-74
2022/03/17 00:41:51;;;;;;;;;;;;;;;3.17;65.76;102430.50;1687714;84;20433;-74
2022/03/17 00:44:17;;;;;;;;;;;;;;;3.18;65.70;102433.92;1704049;84;20453;-73
2022/03/17 00:46:43;;;;;;;;;;;;;;;3.18;65.85;102432.24;1702023;82;20220;-73
2022/03/17 00:49:12;;;;;;;;;;;;;;;3.19;65.96;102435.67;1704431;84;20184;-73
2022/03/17 00:51:36;;;;;;;;;;;;;;;3.20;65.97;102430.63;1704179;84;20401;-73
2022/03/17 00:54:03;;;;;;;;;;;;;;;3.22;66.04;102436.68;1684530;84;20742;-73
2022/03/17 00:56:29;;;;;;;;;;;;;;;3.25;66.11;102437.22;1675854;85;20435;-74
2022/03/17 00:58:54;;;;;;;;;;;;;;;3.25;66.00;102429.55;1674829;85;20809;-73
2022/03/17 01:01:21;;;;;;;;;;;;;;;3.24;66.10;102431.63;1679681;84;20435;-74
2022/03/17 01:03:47;;;;;;;;;;;;;;;3.25;66.16;102439.77;1673604;85;20163;-74
2022/03/17 01:06:13;;;;;;;;;;;;;;;3.27;66.12;102437.75;1686693;84;20741;-74
2022/03/17 01:08:39;;;;;;;;;;;;;;;3.28;66.13;102442.05;1697252;84;20511;-74
2022/03/17 01:11:06;;;;;;;;;;;;;;;3.28;66.04;102430.55;1701665;84;20752;-74
2022/03/17 01:13:32;;;;;;;;;;;;;;;3.27;66.21;102436.47;1688993;84;20423;-73
2022/03/17 01:15:58;;;;;;;;;;;;;;;3.24;66.22;102428.67;1694182;84;20109;-74
2022/03/17 01:18:24;;;;;;;;;;;;;;;3.23;66.33;102427.33;1672059;84;20488;-73
2022/03/17 01:20:50;;;;;;;;;;;;;;;3.21;66.30;102417.04;1672548;84;20443;-73
2022/03/17 01:23:17;;;;;;;;;;;;;;;3.21;66.33;102422.15;1679934;85;20205;-73
2022/03/17 01:25:43;;;;;;;;;;;;;;;3.16;66.32;102412.13;1688560;84;20182;-73
2022/03/17 01:28:09;;;;;;;;;;;;;;;3.12;66.33;102406.42;1685522;84;20522;-74
2022/03/17 01:30:35;;;;;;;;;;;;;;;3.07;66.36;102402.82;1691018;84;20287;-74
2022/03/17 01:33:03;;;;;;;;;;;;;;;3.05;66.32;102404.84;1691318;84;20185;-74
2022/03/17 01:35:29;;;;;;;;;;;;;;;2.98;66.47;102408.41;1672210;84;20486;-74
2022/03/17 01:37:55;;;;;;;;;;;;;;;2.92;66.37;102409.82;1671607;85;20714;-73
2022/03/17 01:40:21;;;;;;;;;;;;;;;2.89;66.42;102405.85;1688024;84;20599;-74
2022/03/17 01:42:47;;;;;;;;;;;;;;;2.87;66.53;102399.39;1697421;84;20819;-74
2022/03/17 01:45:16;;;;;;;;;;;;;;;2.84;66.53;102401.81;1671262;85;20479;-74
2022/03/17 01:47:44;;;;;;;;;;;;;;;2.80;66.36;102406.72;1699440;84;20548;-74
2022/03/17 01:50:15;;;;;;;;;;;;;;;2.74;66.52;102408.59;1689095;84;20496;-74
2022/03/17 01:52:42;;;;;;;;;;;;;;;2.70;66.58;102413.09;1685953;84;20458;-75
2022/03/17 01:55:09;;;;;;;;;;;;;;;2.67;66.52;102405.30;1675343;84;20466;-74
2022/03/17 01:57:36;;;;;;;;;;;;;;;2.66;66.54;102401.00;1685831;84;20136;-74
2022/03/17 02:00:04;;;;;;;;;;;;;;;2.63;66.61;102396.63;1675024;85;20108;-73
2022/03/17 02:02:29;;;;;;;;;;;;;;;2.58;66.47;102404.52;1677837;84;20188;-74
2022/03/17 02:04:55;;;;;;;;;;;;;;;2.54;66.58;102409.02;1702680;84;20799;-74
2022/03/17 02:07:25;;;;;;;;;;;;;;;2.50;66.57;102413.50;1702499;84;20380;-74
2022/03/17 02:09:51;;;;;;;;;;;;;;;2.46;66.70;102411.61;1702737;84;20807;-74
2022/03/17 02:15:04;;;;;;;;;;;;;;;2.42;66.64;102410.13;1702391;84;20153;-74
2022/03/17 02:17:31;;;;;;;;;;;;;;;2.38;66.75;102409.11;1704070;83;20130;-73
2022/03/17 02:19:59;;;;;;;;;;;;;;;2.34;66.76;102409.77;1700096;83;20112;-73
2022/03/17 02:22:25;;;;;;;;;;;;;;;2.32;66.77;102405.87;1676077;84;20140;-73
2022/03/17 02:27:45;;;;;;;;;;;;;;;2.25;66.72;102405.12;1687795;84;20104;-73
2022/03/17 02:30:10;;;;;;;;;;;;;;;2.20;66.79;102404.03;1697826;83;20607;-73
2022/03/17 02:32:37;;;;;;;;;;;;;;;2.15;66.90;102394.41;1693632;83;20191;-73
2022/03/17 02:35:05;;;;;;;;;;;;;;;2.11;66.70;102402.72;1687434;84;20160;-73
2022/03/17 02:37:31;;;;;;;;;;;;;;;2.08;66.75;102406.44;1682347;84;20413;-73
2022/03/17 02:39:57;;;;;;;;;;;;;;;2.02;66.87;102408.30;1704225;83;20109;-74
2022/03/17 02:42:23;;;;;;;;;;;;;;;2.02;66.98;102409.57;1698786;84;20207;-74
2022/03/17 02:44:48;;;;;;;;;;;;;;;2.03;66.97;102406.63;1699809;84;20161;-74
2022/03/17 02:47:15;;;;;;;;;;;;;;;1.99;67.03;102404.32;1700165;84;20621;-73
2022/03/17 02:49:47;;;;;;;;;;;;;;;1.95;67.02;102410.95;1676193;84;20206;-73
2022/03/17 02:52:13;;;;;;;;;;;;;;;1.91;66.90;102401.41;1681348;84;20122;-73
2022/03/17 02:54:39;;;;;;;;;;;;;;;1.91;67.02;102409.45;1689105;84;20153;-73
2022/03/17 02:57:07;;;;;;;;;;;;;;;1.87;66.99;102404.61;1704306;84;20164;-73
2022/03/17 02:59:33;;;;;;;;;;;;;;;1.85;67.02;102403.66;1696790;83;20137;-73
2022/03/17 03:02:01;;;;;;;;;;;;;;;1.82;67.07;102416.27;1676180;84;20206;-73
2022/03/17 03:04:26;;;;;;;;;;;;;;;1.80;67.15;102413.17;1676161;85;20087;-73
2022/03/17 03:06:52;;;;;;;;;;;;;;;1.76;67.14;102417.24;1698593;84;20199;-73
2022/03/17 03:09:18;;;;;;;;;;;;;;;1.73;67.13;102411.99;1676381;83;20107;-73
2022/03/17 03:11:44;;;;;;;;;;;;;;;1.69;67.09;102411.37;1691561;84;20200;-73
2022/03/17 03:14:10;;;;;;;;;;;;;;;1.67;67.10;102414.24;1704109;83;20263;-73
2022/03/17 03:16:35;;;;;;;;;;;;;;;1.64;67.12;102418.79;1691000;83;20207;-73
2022/03/17 03:19:02;;;;;;;;;;;;;;;1.64;67.27;102415.37;1674673;85;20186;-74
2022/03/17 03:21:28;;;;;;;;;;;;;;;1.61;67.26;102418.64;1680190;84;20133;-73
2022/03/17 03:23:53;;;;;;;;;;;;;;;1.57;67.31;102414.19;1689951;84;20182;-73
2022/03/17 03:26:19;;;;;;;;;;;;;;;1.55;67.36;102414.55;1674559;84;20714;-73
2022/03/17 03:28:45;;;;;;;;;;;;;;;1.55;67.33;102416.22;1685113;84;20156;-74
2022/03/17 03:31:10;;;;;;;;;;;;;;;1.53;67.28;102414.00;1684465;84;20699;-74
2022/03/17 03:33:36;;;;;;;;;;;;;;;1.51;67.28;102420.29;1696354;83;20151;-73
2022/03/17 03:38:47;;;;;;;;;;;;;;;1.47;67.42;102417.52;1699030;84;20434;-73
2022/03/17 03:41:13;;;;;;;;;;;;;;;1.46;67.48;102419.19;1702568;83;20168;-74
2022/03/17 03:43:38;;;;;;;;;;;;;;;1.45;67.45;102425.48;1694521;84;20275;-73
2022/03/17 03:46:04;;;;;;;;;;;;;;;1.41;67.41;102423.18;1693208;84;20168;-74
2022/03/17 03:48:31;;;;;;;;;;;;;;;1.39;67.44;102423.90;1702584;84;20200;-74
2022/03/17 03:50:57;;;;;;;;;;;;;;;1.36;67.38;102428.84;1693320;84;20096;-73
2022/03/17 03:54:12;;;;;;;;;;;;;;;1.32;67.42;102426.14;1680895;84;20153;-73
2022/03/17 03:55:51;;;;;;;;;;;;;;;1.30;67.37;102440.48;1704037;83;20342;-73
2022/03/17 03:58:17;;;;;;;;;;;;;;;1.28;67.51;102445.02;1701138;83;20198;-73
2022/03/17 04:00:43;;;;;;;;;;;;;;;1.26;67.39;102444.06;1673439;84;20818;-74
2022/03/17 04:03:09;;;;;;;;;;;;;;;1.24;67.32;102443.11;1688942;85;20204;-73
2022/03/17 04:05:37;;;;;;;;;;;;;;;1.22;67.33;102451.95;1676505;85;20243;-73
2022/03/17 04:08:03;;;;;;;;;;;;;;;1.19;67.36;102443.27;1673634;85;20140;-73
2022/03/17 04:10:30;;;;;;;;;;;;;;;1.18;67.58;102442.80;1626967;87;20106;-73
2022/03/17 04:12:56;;;;;;;;;;;;;;;1.19;67.69;102444.55;1631661;87;20110;-73
2022/03/17 04:15:22;;;;;;;;;;;;;;;1.16;67.54;102453.30;1623598;87;20146;-73
2022/03/17 04:17:50;;;;;;;;;;;;;;;1.13;67.58;102450.20;1664953;85;20153;-73
2022/03/17 04:20:16;;;;;;;;;;;;;;;1.12;67.71;102451.39;1623440;87;20102;-73
2022/03/17 04:22:41;;;;;;;;;;;;;;;1.09;67.66;102460.15;1622686;88;20165;-73
2022/03/17 04:25:08;;;;;;;;;;;;;;;1.08;67.78;102460.55;1648612;85;20170;-73
2022/03/17 04:27:33;;;;;;;;;;;;;;;1.07;67.82;102465.16;1640117;87;20134;-73
2022/03/17 04:29:59;;;;;;;;;;;;;;;1.08;67.84;102468.59;1637268;87;20143;-73
2022/03/17 04:32:25;;;;;;;;;;;;;;;1.05;67.65;102462.94;1674684;85;20492;-73
2022/03/17 04:34:52;;;;;;;;;;;;;;;1.04;67.79;102457.80;1649170;87;20133;-73
2022/03/17 04:37:18;;;;;;;;;;;;;;;1.03;67.64;102467.50;1674035;85;20391;-73
2022/03/17 04:39:44;;;;;;;;;;;;;;;0.97;67.77;102470.20;1649136;87;20182;-73
2022/03/17 04:42:16;;;;;;;;;;;;;;;0.96;67.89;102471.41;1661653;85;20106;-73
2022/03/17 04:44:42;;;;;;;;;;;;;;;0.95;67.86;102473.47;1622662;87;20126;-73
2022/03/17 04:47:07;;;;;;;;;;;;;;;0.92;67.86;102470.36;1667604;85;20175;-73
2022/03/17 04:49:33;;;;;;;;;;;;;;;0.92;67.82;102469.48;1673978;85;20627;-73
2022/03/17 04:51:59;;;;;;;;;;;;;;;0.90;67.75;102469.80;1671722;85;20136;-73
2022/03/17 04:54:24;;;;;;;;;;;;;;;0.85;67.88;102477.20;1644559;87;20452;-73
2022/03/17 04:56:50;;;;;;;;;;;;;;;0.79;67.84;102479.42;1673621;85;20128;-73
2022/03/17 04:59:19;;;;;;;;;;;;;;;0.77;67.94;102477.58;1670695;85;20179;-74
2022/03/17 05:01:43;;;;;;;;;;;;;;;0.74;67.93;102475.75;1647086;84;20360;-73
2022/03/17 05:04:09;;;;;;;;;;;;;;;0.70;67.81;102484.02;1652764;85;20281;-73
2022/03/17 05:06:35;;;;;;;;;;;;;;;0.66;67.93;102486.79;1654602;85;20216;-73
2022/03/17 05:09:01;;;;;;;;;;;;;;;0.66;67.96;102492.28;1651856;85;20353;-73
2022/03/17 05:11:27;;;;;;;;;;;;;;;0.66;68.05;102492.28;1684978;83;20188;-73
2022/03/17 05:13:52;;;;;;;;;;;;;;;0.66;68.17;102501.19;1681498;83;20200;-74
2022/03/17 05:16:18;;;;;;;;;;;;;;;0.63;68.11;102499.34;1682084;84;20201;-73
2022/03/17 05:18:47;;;;;;;;;;;;;;;0.62;68.14;102502.69;1684374;84;20182;-73
2022/03/17 05:21:13;;;;;;;;;;;;;;;0.62;68.18;102503.09;1701839;83;20616;-73
2022/03/17 05:23:38;;;;;;;;;;;;;;;0.62;68.22;102506.50;1685547;84;20117;-73
2022/03/17 05:26:04;;;;;;;;;;;;;;;0.62;68.24;102511.59;1683460;84;20266;-73
2022/03/17 05:28:30;;;;;;;;;;;;;;;0.64;68.28;102518.05;1687982;83;20272;-73
2022/03/17 05:30:56;;;;;;;;;;;;;;;0.66;68.27;102516.46;1682374;83;20182;-73
2022/03/17 05:33:22;;;;;;;;;;;;;;;0.66;68.33;102518.61;1686874;83;20185;-73
2022/03/17 05:35:48;;;;;;;;;;;;;;;0.68;68.30;102527.61;1691956;84;20222;-74
2022/03/17 05:38:14;;;;;;;;;;;;;;;0.70;68.39;102534.93;1692123;83;20246;-73
2022/03/17 05:40:40;;;;;;;;;;;;;;;0.73;68.40;102536.77;1690326;84;20218;-73
2022/03/17 05:43:09;;;;;;;;;;;;;;;0.75;68.43;102537.33;1681708;84;20208;-73
2022/03/17 05:45:36;;;;;;;;;;;;;;;0.82;68.47;102544.52;1669030;84;20182;-73
2022/03/17 05:48:04;;;;;;;;;;;;;;;0.88;68.49;102546.52;1682957;84;20191;-73
2022/03/17 05:50:39;;;;;;;;;;;;;;;0.93;68.58;102543.42;1699805;83;20532;-73
2022/03/17 05:53:07;;;;;;;;;;;;;;;1.02;68.52;102548.14;1693705;83;20213;-74
2022/03/17 05:55:33;;;;;;;;;;;;;;;1.12;68.70;102546.92;1686567;82;20221;-74
2022/03/17 05:57:59;;;;;;;;;;;;;;;1.20;68.68;102546.94;1681564;83;20605;-73
2022/03/17 06:00:27;;;;;;;;;;;;;;;1.32;68.80;102541.22;1685365;84;20172;-73
2022/03/17 06:02:54;;;;;;;;;;;;;;;1.43;68.72;102536.68;1686984;84;20126;-73
2022/03/17 06:05:20;;;;;;;;;;;;;;;1.56;68.73;102543.73;1685126;83;20096;-73
2022/03/17 06:07:51;;;;;;;;;;;;;;;1.69;68.60;102536.31;1683594;84;20160;-73
2022/03/17 06:10:21;;;;;;;;;;;;;;;1.81;68.76;102534.78;1685305;84;20225;-73
2022/03/17 06:12:48;;;;;;;;;;;;;;;1.97;68.90;102534.36;1697806;84;20189;-73
2022/03/17 06:15:14;;;;;;;;;;;;;;;2.15;68.85;102535.63;1696086;84;20205;-74
2022/03/17 06:17:42;;;;;;;;;;;;;;;2.31;68.83;102532.16;1696036;84;20185;-73
2022/03/17 06:20:11;;;;;;;;;;;;;;;2.48;68.84;102531.69;1690265;84;20178;-73
2022/03/17 06:22:45;;;;;;;;;;;;;;;2.64;68.93;102530.30;1677316;84;20189;-74
2022/03/17 06:25:16;;;;;;;;;;;;;;;2.76;68.89;102521.94;1689848;84;20457;-74
2022/03/17 06:27:43;;;;;;;;;;;;;;;2.92;68.95;102525.67;1688578;84;20125;-73
2022/03/17 06:30:12;;;;;;;;;;;;;;;3.12;68.82;102532.94;1677656;84;20177;-73
2022/03/17 06:32:39;;;;;;;;;;;;;;;3.27;68.89;102534.90;1684175;84;20102;-73
2022/03/17 06:35:11;;;;;;;;;;;;;;;3.47;68.92;102542.17;1690899;83;20111;-74
2022/03/17 06:37:37;;;;;;;;;;;;;;;3.65;68.91;102539.51;1691723;84;20079;-74
2022/03/17 06:40:05;;;;;;;;;;;;;;;3.83;68.80;102541.58;1682441;84;20300;-74
2022/03/17 06:42:30;;;;;;;;;;;;;;;3.99;68.84;102533.73;1686029;84;20199;-73
2022/03/17 06:44:58;;;;;;;;;;;;;;;4.17;68.81;102528.88;1693288;84;20287;-73
2022/03/17 06:47:25;;;;;;;;;;;;;;;4.28;68.77;102528.50;1686794;84;20244;-73
2022/03/17 06:49:51;;;;;;;;;;;;;;;4.41;68.74;102527.30;1693114;84;20483;-73
2022/03/17 06:52:17;;;;;;;;;;;;;;;4.57;68.74;102522.38;1683210;84;20184;-74
2022/03/17 06:54:43;;;;;;;;;;;;;;;4.70;68.64;102516.88;1692424;84;20193;-74
2022/03/17 06:57:09;;;;;;;;;;;;;;;4.84;68.84;102520.84;1683307;84;20233;-74
2022/03/17 06:59:35;;;;;;;;;;;;;;;5.03;68.88;102519.85;1682406;84;20117;-74
2022/03/17 07:02:01;;;;;;;;;;;;;;;5.22;68.83;102524.81;1692514;84;20385;-74
2022/03/17 07:04:26;;;;;;;;;;;;;;;5.37;68.77;102528.75;1677656;84;20276;-74
2022/03/17 07:06:52;;;;;;;;;;;;;;;5.49;68.71;102518.52;1681005;84;20318;-74
2022/03/17 07:09:24;;;;;;;;;;;;;;;5.59;68.74;102518.02;1689376;83;20270;-74
2022/03/17 07:11:50;;;;;;;;;;;;;;;5.70;68.63;102516.23;1693431;84;20221;-74
2022/03/17 07:14:16;;;;;;;;;;;;;;;5.78;68.73;102516.06;1592193;85;5001326;-74
2022/03/17 07:16:42;;;;;;;;;;;;;;;5.88;68.59;102521.97;1655037;85;20665;-74
2022/03/17 07:19:07;;;;;;;;;;;;;;;5.93;68.56;102522.62;1641029;86;20191;-74
2022/03/17 07:21:34;;;;;;;;;;;;;;;6.00;68.53;102527.55;1644579;85;20128;-73
2022/03/17 07:24:00;;;;;;;;;;;;;;;6.08;68.69;102529.09;1652371;86;20190;-74
2022/03/17 07:26:27;;;;;;;;;;;;;;;6.19;68.56;102530.31;1661187;85;20210;-73
2022/03/17 07:28:56;;;;;;;;;;;;;;;6.30;68.55;102539.21;1641527;86;20184;-73
2022/03/17 07:31:24;;;;;;;;;;;;;;;6.44;68.60;102540.94;1646969;86;20224;-74
2022/03/17 07:33:50;;;;;;;;;;;;;;;6.57;68.33;102548.22;1660071;86;20171;-74
2022/03/17 07:36:20;;;;;;;;;;;;;;;6.64;68.34;102554.02;1655117;86;20240;-74
2022/03/17 07:38:47;;;;;;;;;;;;;;;6.72;68.40;102550.39;1658978;86;20212;-74
2022/03/17 07:41:14;;;;;;;;;;;;;;;6.82;68.37;102551.10;1659021;86;20232;-74
2022/03/17 07:43:43;;;;;;;;;;;;;;;6.88;68.29;102549.59;1665311;85;20229;-74
2022/03/17 07:46:11;;;;;;;;;;;;;;;6.94;68.33;102554.05;1647857;85;20240;-74
2022/03/17 07:48:37;;;;;;;;;;;;;;;7.00;68.20;102552.07;1666271;86;20245;-74
2022/03/17 07:51:03;;;;;;;;;;;;;;;7.07;68.25;102551.42;1652583;86;20187;-73
2022/03/17 07:53:28;;;;;;;;;;;;;;;7.09;68.01;102544.22;1648418;85;20218;-74
2022/03/17 07:55:55;;;;;;;;;;;;;;;7.13;67.96;102549.91;1657626;86;20263;-73
2022/03/17 07:58:24;;;;;;;;;;;;;;;7.20;68.04;102553.53;1652580;86;20705;-73
2022/03/17 08:00:54;;;;;;;;;;;;;;;7.28;68.02;102554.59;1666287;85;20232;-73
2022/03/17 08:03:20;;;;;;;;;;;;;;;7.37;67.97;102564.27;1666685;85;20240;-73
2022/03/17 08:05:47;;;;;;;;;;;;;;;7.48;67.97;102562.46;1662325;85;20222;-73
2022/03/17 08:08:15;;;;;;;;;;;;;;;7.57;67.78;102567.87;1642506;86;20238;-73
2022/03/17 08:10:42;;;;;;;;;;;;;;;7.62;67.65;102570.56;1648926;86;20185;-74
2022/03/17 08:13:09;;;;;;;;;;;;;;;7.62;67.64;102575.30;1647836;86;20229;-74
2022/03/17 08:15:39;;;;;;;;;;;;;;;7.66;67.65;102576.27;1616195;87;20260;-74
2022/03/17 08:18:06;;;;;;;;;;;;;;;7.69;67.57;102577.63;1627495;88;20187;-74
2022/03/17 08:20:35;;;;;;;;;;;;;;;7.75;67.57;102576.52;1629716;88;20251;-74
2022/03/17 08:23:00;;;;;;;;;;;;;;;7.82;67.59;102580.09;1618138;87;20193;-74
2022/03/17 08:25:26;;;;;;;;;;;;;;;7.86;67.44;102573.78;1631192;88;20191;-74
2022/03/17 08:27:54;;;;;;;;;;;;;;;7.90;67.37;102573.44;1627974;88;20215;-74
2022/03/17 08:30:21;;;;;;;;;;;;;;;7.96;67.42;102574.48;1628714;87;20159;-74
2022/03/17 08:32:48;;;;;;;;;;;;;;;8.03;67.40;102575.92;1649145;86;20142;-74
2022/03/17 08:35:14;;;;;;;;;;;;;;;8.08;67.24;102571.77;1650833;86;20146;-74
2022/03/17 08:37:42;;;;;;;;;;;;;;;8.15;67.31;102564.64;1643248;86;20118;-74
2022/03/17 08:40:09;;;;;;;;;;;;;;;8.23;67.27;102564.00;1643369;86;20186;-74
2022/03/17 08:42:35;;;;;;;;;;;;;;;8.28;67.14;102565.41;1664131;85;20207;-74
2022/03/17 08:45:01;;;;;;;;;;;;;;;8.34;67.11;102565.98;1647222;86;20189;-74
2022/03/17 08:50:12;;;;;;;;;;;;;;;8.44;66.85;102567.53;1617469;88;20222;-74
2022/03/17 08:52:37;;;;;;;;;;;;;;;8.53;66.89;102563.01;1624311;88;20203;-74
2022/03/17 08:55:04;;;;;;;;;;;;;;;8.59;66.67;102567.89;1616055;88;20208;-74
2022/03/17 08:57:30;;;;;;;;;;;;;;;8.66;66.44;102565.46;1622682;87;20304;-74
2022/03/17 08:59:56;;;;;;;;;;;;;;;8.75;66.64;102569.13;1629576;87;20155;-74
2022/03/17 09:02:23;;;;;;;;;;;;;;;8.80;66.39;102564.07;1606337;88;20237;-74
2022/03/17 09:04:48;;;;;;;;;;;;;;;8.86;66.21;102566.34;1598911;88;20133;-74
2022/03/17 09:07:14;;;;;;;;;;;;;;;8.92;66.29;102563.02;1608476;89;20862;-74
2022/03/17 09:09:40;;;;;;;;;;;;;;;8.98;66.07;102559.28;1603895;89;20235;-74
2022/03/17 09:12:07;;;;;;;;;;;;;;;9.04;66.11;102562.42;1612017;87;20188;-74
2022/03/17 09:14:40;;;;;;;;;;;;;;;9.07;66.03;102562.06;1591302;89;20215;-74
2022/03/17 09:17:06;;;;;;;;;;;;;;;9.12;65.56;102566.91;1596947;89;20101;-74
2022/03/17 09:19:40;;;;;;;;;;;;;;;9.17;65.64;102557.97;1615307;88;20154;-74
2022/03/17 09:22:07;;;;;;;;;;;;;;;9.25;65.78;102559.00;1609657;89;20245;-74
2022/03/17 09:24:33;;;;;;;;;;;;;;;9.28;65.28;102552.61;1612283;87;20190;-74
2022/03/17 09:26:59;;;;;;;;;;;;;;;9.31;65.03;102547.52;1606499;89;20506;-74
2022/03/17 09:29:28;;;;;;;;;;;;;;;9.36;65.45;102545.86;1614195;87;20166;-74
2022/03/17 09:32:03;;;;;;;;;;;;;;;9.40;65.23;102550.25;1614776;88;20138;-74
2022/03/17 09:34:32;;;;;;;;;;;;;;;9.46;65.35;102553.38;1611984;88;20130;-74
2022/03/17 09:36:57;;;;;;;;;;;;;;;9.53;64.95;102553.94;1614690;87;20138;-74
2022/03/17 09:42:07;;;;;;;;;;;;;;;9.66;64.98;102557.21;1614359;87;20142;-74
2022/03/17 09:44:33;;;;;;;;;;;;;;;9.72;64.92;102554.75;1582426;90;20179;-74
2022/03/17 09:46:59;;;;;;;;;;;;;;;9.79;64.61;102556.59;1609360;89;20168;-74
2022/03/17 09:49:26;;;;;;;;;;;;;;;9.87;64.82;102553.73;1614723;88;20218;-74
2022/03/17 09:51:55;;;;;;;;;;;;;;;9.93;64.55;102558.98;1612142;87;20140;-73
2022/03/17 09:54:20;;;;;;;;;;;;;;;9.97;64.38;102557.32;1608655;87;20239;-74
2022/03/17 09:56:45;;;;;;;;;;;;;;;10.01;64.12;102556.53;1603347;88;20204;-74
2022/03/17 09:59:11;;;;;;;;;;;;;;;10.08;64.22;102562.26;1614746;87;21761;-74
2022/03/17 10:01:39;;;;;;;;;;;;;;;10.13;64.31;102562.34;1600627;88;20664;-74
2022/03/17 10:04:07;;;;;;;;;;;;;;;10.16;64.30;102565.84;1614763;88;20155;-73
2022/03/17 10:06:34;;;;;;;;;;;;;;;10.23;64.04;102561.69;1617987;87;20467;-74
2022/03/17 10:09:00;;;;;;;;;;;;;;;10.28;64.28;102560.05;1612056;88;20498;-73
2022/03/17 10:11:30;;;;;;;;;;;;;;;10.30;63.89;102558.35;1624606;87;20178;-73
2022/03/17 10:13:57;;;;;;;;;;;;;;;10.30;63.72;102562.23;1593195;89;20491;-74
2022/03/17 10:16:27;;;;;;;;;;;;;;;10.33;63.73;102567.88;1641669;86;20493;-74
2022/03/17 10:18:59;;;;;;;;;;;;;;;10.37;63.55;102571.83;1634703;87;20506;-73
2022/03/17 10:21:27;;;;;;;;;;;;;;;10.41;63.46;102576.59;1634808;87;20257;-73
2022/03/17 10:24:02;;;;;;;;;;;;;;;10.44;63.49;102569.76;1635774;87;20653;-73
2022/03/17 10:26:41;;;;;;;;;;;;;;;10.46;62.93;102570.66;1634962;87;21170;-74
2022/03/17 10:29:19;;;;;;;;;;;;;;;10.51;62.99;102578.48;1664529;85;20411;-74
2022/03/17 10:32:06;;;;;;;;;;;;;;;10.55;63.00;102573.39;1665414;85;20431;-74
2022/03/17 10:34:36;;;;;;;;;;;;;;;10.60;62.94;102566.98;1656079;85;20161;-74
2022/03/17 10:37:09;;;;;;;;;;;;;;;10.65;62.92;102573.11;1671791;85;20800;-74
2022/03/17 10:39:42;;;;;;;;;;;;;;;10.68;62.66;102565.81;1665487;85;20563;-74
2022/03/17 10:42:20;;;;;;;;;;;;;;;10.73;62.87;102571.50;1619314;87;20159;-73
2022/03/17 10:44:48;;;;;;;;;;;;;;;10.79;62.64;102568.14;1613116;88;20188;-74
2022/03/17 10:47:18;;;;;;;;;;;;;;;10.80;62.25;102568.16;1634867;87;20593;-73
2022/03/17 10:49:47;;;;;;;;;;;;;;;10.83;62.30;102565.61;1667668;85;20238;-74
2022/03/17 10:52:14;;;;;;;;;;;;;;;10.85;62.10;102572.11;1616079;87;20187;-74
2022/03/17 10:54:40;;;;;;;;;;;;;;;10.84;61.88;102563.89;1642149;87;20808;-74
2022/03/17 10:57:11;;;;;;;;;;;;;;;10.83;61.63;102572.08;1637667;87;20641;-74
2022/03/17 10:59:42;;;;;;;;;;;;;;;10.83;61.87;102577.27;1625823;87;20168;-73
2022/03/17 11:02:10;;;;;;;;;;;;;;;10.81;61.55;102576.37;1646543;85;20535;-73
2022/03/17 11:04:40;;;;;;;;;;;;;;;10.84;61.47;102573.83;1651541;86;20546;-73
2022/03/17 11:07:10;;;;;;;;;;;;;;;10.86;61.31;102576.02;1662749;85;20404;-73
2022/03/17 11:09:40;;;;;;;;;;;;;;;10.86;60.50;102568.25;1681804;85;20874;-73
2022/03/17 11:12:12;;;;;;;;;;;;;;;10.85;61.16;102579.45;1682166;85;20398;-73
2022/03/17 11:14:43;;;;;;;;;;;;;;;10.85;60.46;102570.81;1685013;84;20393;-73
2022/03/17 11:17:11;;;;;;;;;;;;;;;10.89;60.91;102571.30;1673916;85;20542;-73
2022/03/17 11:19:42;;;;;;;;;;;;;;;10.90;60.39;102573.91;1680483;85;20115;-73
2022/03/17 11:22:10;;;;;;;;;;;;;;;10.92;60.43;102577.36;1674975;85;20895;-74
2022/03/17 11:24:38;;;;;;;;;;;;;;;10.95;60.63;102576.53;1655872;85;20542;-74
2022/03/17 11:27:13;;;;;;;;;;;;;;;10.96;60.65;102580.86;1685811;84;20096;-74
2022/03/17 11:29:45;;;;;;;;;;;;;;;10.95;60.32;102579.12;1677807;85;20521;-74
2022/03/17 11:32:29;;;;;;;;;;;;;;;10.93;60.37;102579.52;1662758;85;20195;-74
2022/03/17 11:35:09;;;;;;;;;;;;;;;10.92;59.62;102571.31;1668251;85;40794;-74
2022/03/17 11:37:35;;;;;;;;;;;;;;;10.93;59.92;102571.76;1671041;85;20189;-74
2022/03/17 11:40:09;;;;;;;;;;;;;;;10.95;59.80;102577.83;1681162;85;20128;-74
2022/03/17 11:42:47;;;;;;;;;;;;;;;10.98;59.65;102580.88;1662666;85;20487;-74
2022/03/17 11:45:19;;;;;;;;;;;;;;;11.01;59.64;102585.67;1677687;85;20434;-74
2022/03/17 11:47:49;;;;;;;;;;;;;;;11.03;59.42;102576.64;1668702;84;20516;-74
2022/03/17 11:50:33;;;;;;;;;;;;;;;11.02;59.41;102577.48;1676810;84;20234;-74
2022/03/17 11:53:04;;;;;;;;;;;;;;;11.01;59.27;102578.34;1676579;85;20187;-74
2022/03/17 11:55:48;;;;;;;;;;;;;;;11.02;59.53;102575.77;1676102;85;20203;-74
2022/03/17 11:58:31;;;;;;;;;;;;;;;11.01;59.42;102572.73;1673197;85;20277;-74
2022/03/17 12:01:05;;;;;;;;;;;;;;;11.01;59.12;102562.80;1679762;84;20195;-73
2022/03/17 12:03:39;;;;;;;;;;;;;;;11.02;59.29;102561.53;1664284;85;20466;-73
2022/03/17 12:06:19;;;;;;;;;;;;;;;11.01;59.04;102558.50;1666182;85;20151;-73
2022/03/17 12:08:49;;;;;;;;;;;;;;;11.00;58.72;102556.76;1644617;85;20716;-73
2022/03/17 12:11:17;;;;;;;;;;;;;;;11.00;58.48;102557.18;1668333;85;20211;-73
2022/03/17 12:13:45;;;;;;;;;;;;;;;11.01;58.36;102557.62;1657708;85;20812;-73
2022/03/17 12:16:14;;;;;;;;;;;;;;;11.00;57.73;102545.11;1655998;85;20227;-73
2022/03/17 12:19:03;;;;;;;;;;;;;;;11.00;58.32;102548.99;1664678;85;20212;-73
2022/03/17 12:22:04;;;;;;;;;;;;;;;11.00;58.17;102546.41;1666478;84;20195;-73
2022/03/17 12:24:39;;;;;;;;;;;;;;;10.99;57.87;102546.38;1656915;85;20201;-73
2022/03/17 12:27:29;;;;;;;;;;;;;;;10.99;58.21;102544.66;1665637;85;20208;-73
2022/03/17 12:30:03;;;;;;;;;;;;;;;10.99;57.46;102538.61;1663578;84;20238;-74
2022/03/17 12:32:35;;;;;;;;;;;;;;;10.97;57.04;102536.44;1663091;84;20290;-73
2022/03/17 12:35:02;;;;;;;;;;;;;;;10.93;57.31;102541.56;1669735;85;20239;-73
2022/03/17 12:37:33;;;;;;;;;;;;;;;10.90;57.14;102545.44;1667754;84;20188;-73
2022/03/17 12:40:03;;;;;;;;;;;;;;;10.90;57.61;102547.16;1624441;87;20467;-73
2022/03/17 12:42:31;;;;;;;;;;;;;;;10.92;57.48;102548.02;1624193;86;20206;-74
2022/03/17 12:45:02;;;;;;;;;;;;;;;10.91;56.80;102555.37;1619555;87;20221;-74
2022/03/17 12:47:33;;;;;;;;;;;;;;;10.90;57.03;102553.20;1612549;87;20249;-73
2022/03/17 12:50:00;;;;;;;;;;;;;;;10.91;57.11;102564.43;1591445;88;20279;-73
2022/03/17 12:52:28;;;;;;;;;;;;;;;10.90;56.76;102560.10;1641682;87;20325;-73
2022/03/17 12:54:56;;;;;;;;;;;;;;;10.89;56.69;102551.47;1662957;85;20130;-73
2022/03/17 12:57:24;;;;;;;;;;;;;;;10.88;56.46;102552.73;1665671;85;20156;-73
2022/03/17 12:59:50;;;;;;;;;;;;;;;10.86;56.51;102555.73;1646633;85;20211;-74
2022/03/17 13:02:18;;;;;;;;;;;;;;;10.85;56.33;102560.46;1661769;84;20282;-73